sensor_id;sensor_type;location;lat;lon;timestamp;pressure;altitude;pressure_sealevel;temperature;humidity
31595;BME280;18200;48.726;8.892;2023-03-13T05:30:33;95932.56;;;24.54;34.89
31595;BME280;18200;48.726;8.892;2023-03-13T05:34:56;95940.16;;;25.07;34.79
31595;BME280;18200;48.726;8.892;2023-03-13T05:39:26;95925.56;;;25.01;34.63
31595;BME280;18200;48.726;8.892;2023-03-13T05:43:40;95911.44;;;26.04;32.83
31595;BME280;18200;48.726;8.892;2023-03-13T05:47:58;95912.88;;;25.03;34.61
31595;BME280;18200;48.726;8.892;2023-03-13T05:52:26;95899.72;;;24.84;34.81
31595;BME280;18200;48.726;8.892;2023-03-13T05:56:47;95887.13;;;25.30;34.05
31595;BME280;18200;48.726;8.892;2023-03-13T06:01:10;95886.72;;;25.08;34.58
31595;BME280;18200;48.726;8.892;2023-03-13T06:05:29;95882.81;;;25.67;33.79
31595;BME280;18200;48.726;8.892;2023-03-13T06:09:30;95893.81;;;25.53;34.47
31595;BME280;18200;48.726;8.892;2023-03-13T06:13:32;95902.31;;;25.40;34.12
31595;BME280;18200;48.726;8.892;2023-03-13T06:17:38;95913.31;;;25.40;34.22
31595;BME280;18200;48.726;8.892;2023-03-13T06:21:38;95909.44;;;24.14;36.23
31595;BME280;18200;48.726;8.892;2023-03-13T06:25:38;95911.47;;;25.08;35.27
31595;BME280;18200;48.726;8.892;2023-03-13T06:29:39;95903.47;;;25.77;34.26
31595;BME280;18200;48.726;8.892;2023-03-13T06:33:39;95903.81;;;25.41;34.53
31595;BME280;18200;48.726;8.892;2023-03-13T06:37:39;95899.97;;;24.95;35.78
31595;BME280;18200;48.726;8.892;2023-03-13T06:41:40;95898.56;;;24.76;36.26
31595;BME280;18200;48.726;8.892;2023-03-13T06:45:40;95899.56;;;24.63;36.67
31595;BME280;18200;48.726;8.892;2023-03-13T06:49:41;95919.25;;;24.86;36.21
31595;BME280;18200;48.726;8.892;2023-03-13T06:53:41;95914.22;;;25.46;35.07
31595;BME280;18200;48.726;8.892;2023-03-13T06:57:42;95932.22;;;24.61;37.24
31595;BME280;18200;48.726;8.892;2023-03-13T07:01:42;95936.25;;;24.99;35.76
31595;BME280;18200;48.726;8.892;2023-03-13T07:05:43;95937.63;;;24.47;37.85
31595;BME280;18200;48.726;8.892;2023-03-13T07:09:43;95927.00;;;25.49;35.50
31595;BME280;18200;48.726;8.892;2023-03-13T07:19:43;95941.16;;;25.71;35.42
31595;BME280;18200;48.726;8.892;2023-03-13T07:24:33;95923.38;;;25.43;35.86
31595;BME280;18200;48.726;8.892;2023-03-13T07:29:27;95918.38;;;25.85;35.34
31595;BME280;18200;48.726;8.892;2023-03-13T07:33:27;95912.97;;;25.09;36.66
31595;BME280;18200;48.726;8.892;2023-03-13T07:37:27;95920.97;;;25.74;34.87
31595;BME280;18200;48.726;8.892;2023-03-13T07:41:28;95910.03;;;24.98;37.09
31595;BME280;18200;48.726;8.892;2023-03-13T07:45:29;95892.44;;;25.19;36.51
31595;BME280;18200;48.726;8.892;2023-03-13T07:49:29;95894.09;;;24.54;37.96
31595;BME280;18200;48.726;8.892;2023-03-13T07:53:30;95904.22;;;25.34;35.92
31595;BME280;18200;48.726;8.892;2023-03-13T07:57:31;95899.25;;;24.61;37.26
31595;BME280;18200;48.726;8.892;2023-03-13T08:01:31;95906.84;;;23.59;39.19
31595;BME280;18200;48.726;8.892;2023-03-13T08:05:31;95858.69;;;25.33;36.04
31595;BME280;18200;48.726;8.892;2023-03-13T08:09:32;95848.25;;;25.22;35.77
31595;BME280;18200;48.726;8.892;2023-03-13T08:13:33;95843.50;;;25.81;35.21
31595;BME280;18200;48.726;8.892;2023-03-13T08:17:34;95841.56;;;26.17;34.81
31595;BME280;18200;48.726;8.892;2023-03-13T08:21:36;95844.47;;;26.88;33.05
31595;BME280;18200;48.726;8.892;2023-03-13T08:25:37;95833.22;;;25.96;34.57
31595;BME280;18200;48.726;8.892;2023-03-13T08:29:37;95844.06;;;26.95;32.87
31595;BME280;18200;48.726;8.892;2023-03-13T08:33:38;95853.06;;;27.16;32.90
31595;BME280;18200;48.726;8.892;2023-03-13T08:37:39;95836.88;;;25.15;36.25
31595;BME280;18200;48.726;8.892;2023-03-13T08:41:39;95848.75;;;26.69;33.77
31595;BME280;18200;48.726;8.892;2023-03-13T08:45:40;95858.13;;;26.57;33.74
31595;BME280;18200;48.726;8.892;2023-03-13T08:49:40;95876.25;;;25.65;35.26
31595;BME280;18200;48.726;8.892;2023-03-13T08:53:42;95882.91;;;26.57;33.73
31595;BME280;18200;48.726;8.892;2023-03-13T08:57:43;95873.41;;;27.18;32.49
31595;BME280;18200;48.726;8.892;2023-03-13T09:01:43;95876.66;;;26.22;33.65
31595;BME280;18200;48.726;8.892;2023-03-13T09:05:43;95892.16;;;26.94;33.46
31595;BME280;18200;48.726;8.892;2023-03-13T09:09:45;95886.97;;;27.22;33.01
31595;BME280;18200;48.726;8.892;2023-03-13T09:13:47;95902.50;;;24.98;36.62
31595;BME280;18200;48.726;8.892;2023-03-13T09:17:48;95886.53;;;25.26;35.80
31595;BME280;18200;48.726;8.892;2023-03-13T09:21:48;95885.66;;;27.63;32.36
31595;BME280;18200;48.726;8.892;2023-03-13T09:25:52;95895.06;;;27.77;32.33
31595;BME280;18200;48.726;8.892;2023-03-13T09:29:53;95907.59;;;27.46;32.57
31595;BME280;18200;48.726;8.892;2023-03-13T09:33:54;95921.31;;;27.21;32.75
31595;BME280;18200;48.726;8.892;2023-03-13T09:37:54;95915.06;;;26.10;34.54
31595;BME280;18200;48.726;8.892;2023-03-13T09:46:01;95919.84;;;26.45;34.35
31595;BME280;18200;48.726;8.892;2023-03-13T09:50:31;95920.00;;;25.48;35.43
31595;BME280;18200;48.726;8.892;2023-03-13T09:54:37;95884.84;;;26.01;34.58
31595;BME280;18200;48.726;8.892;2023-03-13T09:58:40;95896.31;;;28.07;31.75
31595;BME280;18200;48.726;8.892;2023-03-13T10:03:10;95884.16;;;28.61;30.44
31595;BME280;18200;48.726;8.892;2023-03-13T10:07:12;95878.38;;;27.14;32.51
31595;BME280;18200;48.726;8.892;2023-03-13T10:11:24;95866.34;;;30.48;28.03
31595;BME280;18200;48.726;8.892;2023-03-13T10:19:34;95841.94;;;29.53;29.67
31595;BME280;18200;48.726;8.892;2023-03-13T10:23:47;95867.94;;;28.43;30.33
31595;BME280;18200;48.726;8.892;2023-03-13T10:27:49;95855.63;;;28.02;31.17
31595;BME280;18200;48.726;8.892;2023-03-13T10:32:03;95843.94;;;29.41;29.37
31595;BME280;18200;48.726;8.892;2023-03-13T10:36:10;95843.44;;;28.19;30.05
31595;BME280;18200;48.726;8.892;2023-03-13T10:40:21;95843.50;;;28.78;29.94
31595;BME280;18200;48.726;8.892;2023-03-13T10:44:23;95861.31;;;27.61;31.33
31595;BME280;18200;48.726;8.892;2023-03-13T10:48:35;95833.97;;;27.63;31.95
31595;BME280;18200;48.726;8.892;2023-03-13T10:56:39;95825.97;;;27.97;30.77
31595;BME280;18200;48.726;8.892;2023-03-13T11:00:40;95822.03;;;28.09;30.44
31595;BME280;18200;48.726;8.892;2023-03-13T11:04:41;95825.88;;;27.54;31.90
31595;BME280;18200;48.726;8.892;2023-03-13T11:08:41;95813.22;;;27.74;31.71
31595;BME280;18200;48.726;8.892;2023-03-13T11:12:47;95800.91;;;29.24;29.02
31595;BME280;18200;48.726;8.892;2023-03-13T11:16:53;95778.03;;;29.73;28.63
31595;BME280;18200;48.726;8.892;2023-03-13T11:20:55;95772.56;;;30.52;26.98
31595;BME280;18200;48.726;8.892;2023-03-13T11:25:19;95754.25;;;30.85;27.15
31595;BME280;18200;48.726;8.892;2023-03-13T11:33:52;95750.09;;;31.37;26.76
31595;BME280;18200;48.726;8.892;2023-03-13T11:37:57;95731.22;;;29.31;28.75
31595;BME280;18200;48.726;8.892;2023-03-13T11:47:03;95720.75;;;30.20;27.69
31595;BME280;18200;48.726;8.892;2023-03-13T11:55:18;95701.84;;;32.43;25.61
31595;BME280;18200;48.726;8.892;2023-03-13T11:59:50;95689.56;;;30.65;27.26
31595;BME280;18200;48.726;8.892;2023-03-13T12:04:03;95685.09;;;31.57;25.71
31595;BME280;18200;48.726;8.892;2023-03-13T12:08:10;95668.22;;;33.73;23.97
31595;BME280;18200;48.726;8.892;2023-03-13T12:16:36;95641.69;;;30.59;26.95
31595;BME280;18200;48.726;8.892;2023-03-13T12:20:55;95630.44;;;31.17;26.49
31595;BME280;18200;48.726;8.892;2023-03-13T12:25:01;95606.44;;;30.90;26.84
31595;BME280;18200;48.726;8.892;2023-03-13T12:38:09;95569.47;;;32.84;23.62
31595;BME280;18200;48.726;8.892;2023-03-13T12:42:22;95552.69;;;31.84;24.94
31595;BME280;18200;48.726;8.892;2023-03-13T12:46:51;95543.03;;;34.22;22.67
31595;BME280;18200;48.726;8.892;2023-03-13T12:51:24;95517.22;;;32.64;23.85
31595;BME280;18200;48.726;8.892;2023-03-13T12:59:57;95514.41;;;31.58;24.92
31595;BME280;18200;48.726;8.892;2023-03-13T13:04:16;95492.28;;;33.90;22.70
31595;BME280;18200;48.726;8.892;2023-03-13T13:08:24;95486.69;;;34.57;21.41
31595;BME280;18200;48.726;8.892;2023-03-13T13:12:25;95489.22;;;34.14;22.51
31595;BME280;18200;48.726;8.892;2023-03-13T13:16:27;95486.34;;;33.59;22.88
31595;BME280;18200;48.726;8.892;2023-03-13T13:20:37;95471.97;;;32.90;23.88
31595;BME280;18200;48.726;8.892;2023-03-13T13:24:47;95463.72;;;31.52;24.73
31595;BME280;18200;48.726;8.892;2023-03-13T13:33:39;95438.22;;;32.67;23.72
31595;BME280;18200;48.726;8.892;2023-03-13T13:37:40;95426.38;;;34.13;22.17
31595;BME280;18200;48.726;8.892;2023-03-13T13:41:41;95415.03;;;30.06;26.77
31595;BME280;18200;48.726;8.892;2023-03-13T13:45:58;95408.41;;;32.81;24.17
31595;BME280;18200;48.726;8.892;2023-03-13T13:50:00;95400.84;;;33.88;22.72
31595;BME280;18200;48.726;8.892;2023-03-13T13:54:01;95389.34;;;32.98;23.51
31595;BME280;18200;48.726;8.892;2023-03-13T13:58:04;95392.75;;;32.78;23.74
31595;BME280;18200;48.726;8.892;2023-03-13T14:06:22;95379.88;;;33.95;22.39
31595;BME280;18200;48.726;8.892;2023-03-13T14:10:39;95367.88;;;31.27;25.11
31595;BME280;18200;48.726;8.892;2023-03-13T14:14:40;95361.19;;;32.75;23.70
31595;BME280;18200;48.726;8.892;2023-03-13T14:18:40;95346.03;;;33.36;22.54
31595;BME280;18200;48.726;8.892;2023-03-13T14:22:48;95334.13;;;35.82;19.80
31595;BME280;18200;48.726;8.892;2023-03-13T14:26:50;95328.91;;;34.84;21.35
31595;BME280;18200;48.726;8.892;2023-03-13T14:30:56;95322.13;;;32.94;22.95
31595;BME280;18200;48.726;8.892;2023-03-13T14:34:57;95310.03;;;33.38;22.80
31595;BME280;18200;48.726;8.892;2023-03-13T14:39:01;95307.41;;;32.47;23.99
31595;BME280;18200;48.726;8.892;2023-03-13T14:43:03;95299.47;;;33.57;22.49
31595;BME280;18200;48.726;8.892;2023-03-13T14:47:06;95296.28;;;34.72;21.20
31595;BME280;18200;48.726;8.892;2023-03-13T14:51:10;95268.38;;;35.07;20.97
31595;BME280;18200;48.726;8.892;2023-03-13T14:59:24;95260.03;;;35.38;20.89
31595;BME280;18200;48.726;8.892;2023-03-13T15:03:30;95247.34;;;34.71;20.76
31595;BME280;18200;48.726;8.892;2023-03-13T15:07:52;95238.91;;;34.56;21.31
31595;BME280;18200;48.726;8.892;2023-03-13T15:11:56;95209.00;;;36.35;20.08
31595;BME280;18200;48.726;8.892;2023-03-13T15:15:57;95214.75;;;34.58;21.30
31595;BME280;18200;48.726;8.892;2023-03-13T15:19:58;95201.41;;;34.79;21.17
31595;BME280;18200;48.726;8.892;2023-03-13T15:24:01;95185.69;;;36.25;19.93
31595;BME280;18200;48.726;8.892;2023-03-13T15:28:02;95173.69;;;34.38;21.50
31595;BME280;18200;48.726;8.892;2023-03-13T15:32:02;95152.88;;;34.97;20.41
31595;BME280;18200;48.726;8.892;2023-03-13T15:36:03;95142.44;;;34.75;21.30
31595;BME280;18200;48.726;8.892;2023-03-13T15:40:05;95122.47;;;36.70;19.30
31595;BME280;18200;48.726;8.892;2023-03-13T15:44:07;95138.22;;;33.75;22.29
31595;BME280;18200;48.726;8.892;2023-03-13T15:48:27;95120.69;;;36.89;19.69
31595;BME280;18200;48.726;8.892;2023-03-13T15:52:34;95129.06;;;33.67;21.85
31595;BME280;18200;48.726;8.892;2023-03-13T15:56:36;95104.00;;;35.27;20.49
31595;BME280;18200;48.726;8.892;2023-03-13T16:00:36;95092.66;;;36.17;20.10
31595;BME280;18200;48.726;8.892;2023-03-13T16:04:37;95086.53;;;36.11;19.92
31595;BME280;18200;48.726;8.892;2023-03-13T16:08:38;95092.91;;;34.76;20.48
31595;BME280;18200;48.726;8.892;2023-03-13T16:12:39;95072.59;;;33.66;22.37
31595;BME280;18200;48.726;8.892;2023-03-13T16:16:39;95067.41;;;34.06;22.16
31595;BME280;18200;48.726;8.892;2023-03-13T16:20:40;95042.50;;;33.65;22.49
31595;BME280;18200;48.726;8.892;2023-03-13T16:24:40;95039.06;;;34.30;22.09
31595;BME280;18200;48.726;8.892;2023-03-13T16:28:41;95047.22;;;34.28;22.11
31595;BME280;18200;48.726;8.892;2023-03-13T16:32:42;95035.16;;;33.26;22.61
31595;BME280;18200;48.726;8.892;2023-03-13T16:36:42;95035.59;;;32.88;23.11
31595;BME280;18200;48.726;8.892;2023-03-13T16:40:43;95028.19;;;32.91;23.11
31595;BME280;18200;48.726;8.892;2023-03-13T16:44:43;95025.34;;;33.53;22.72
31595;BME280;18200;48.726;8.892;2023-03-13T16:48:45;95035.06;;;33.11;23.33
31595;BME280;18200;48.726;8.892;2023-03-13T16:52:46;95026.75;;;33.75;22.78
31595;BME280;18200;48.726;8.892;2023-03-13T16:56:46;95019.19;;;34.41;22.29
31595;BME280;18200;48.726;8.892;2023-03-13T17:00:47;95023.56;;;35.18;21.03
31595;BME280;18200;48.726;8.892;2023-03-13T17:04:47;95016.72;;;34.22;21.83
31595;BME280;18200;48.726;8.892;2023-03-13T17:08:48;95016.03;;;34.37;22.02
31595;BME280;18200;48.726;8.892;2023-03-13T17:12:48;95009.00;;;34.51;21.69
31595;BME280;18200;48.726;8.892;2023-03-13T17:16:49;94997.19;;;34.07;22.59
31595;BME280;18200;48.726;8.892;2023-03-13T17:20:49;94995.59;;;33.84;22.99
31595;BME280;18200;48.726;8.892;2023-03-13T17:24:50;94995.34;;;33.74;23.09
31595;BME280;18200;48.726;8.892;2023-03-13T17:28:52;94987.38;;;33.42;23.75
31595;BME280;18200;48.726;8.892;2023-03-13T17:32:53;94980.84;;;33.40;23.76
31595;BME280;18200;48.726;8.892;2023-03-13T17:36:54;94957.53;;;33.15;23.91
31595;BME280;18200;48.726;8.892;2023-03-13T17:40:54;94945.53;;;32.99;23.69
31595;BME280;18200;48.726;8.892;2023-03-13T17:44:55;94942.44;;;33.46;23.73
31595;BME280;18200;48.726;8.892;2023-03-13T17:48:55;94939.34;;;33.14;24.51
31595;BME280;18200;48.726;8.892;2023-03-13T17:52:56;94922.47;;;32.91;24.21
31595;BME280;18200;48.726;8.892;2023-03-13T17:56:56;94916.50;;;32.87;24.86
31595;BME280;18200;48.726;8.892;2023-03-13T18:00:56;94902.03;;;32.40;25.66
31595;BME280;18200;48.726;8.892;2023-03-13T18:04:57;94881.34;;;32.69;25.25
31595;BME280;18200;48.726;8.892;2023-03-13T18:08:59;94886.06;;;32.81;25.27
31595;BME280;18200;48.726;8.892;2023-03-13T18:13:07;94895.28;;;32.28;26.11
31595;BME280;18200;48.726;8.892;2023-03-13T18:17:19;94928.22;;;31.56;26.98
31595;BME280;18200;48.726;8.892;2023-03-13T18:21:21;94919.00;;;31.01;27.43
31595;BME280;18200;48.726;8.892;2023-03-13T18:25:22;94967.59;;;30.63;28.09
31595;BME280;18200;48.726;8.892;2023-03-13T18:29:24;95072.25;;;25.92;33.99
31595;BME280;18200;48.726;8.892;2023-03-13T18:33:28;95131.38;;;25.49;38.37
31595;BME280;18200;48.726;8.892;2023-03-13T18:37:29;95059.56;;;22.26;47.88
31595;BME280;18200;48.726;8.892;2023-03-13T18:41:30;95016.72;;;24.76;42.24
31595;BME280;18200;48.726;8.892;2023-03-13T18:45:32;95036.91;;;25.09;41.35
31595;BME280;18200;48.726;8.892;2023-03-13T18:49:32;95052.53;;;25.93;39.96
31595;BME280;18200;48.726;8.892;2023-03-13T18:53:33;94954.91;;;25.67;40.46
31595;BME280;18200;48.726;8.892;2023-03-13T18:57:33;94910.19;;;26.16;40.43
31595;BME280;18200;48.726;8.892;2023-03-13T19:01:34;94930.63;;;27.85;37.44
31595;BME280;18200;48.726;8.892;2023-03-13T19:05:35;94918.84;;;26.70;38.27
31595;BME280;18200;48.726;8.892;2023-03-13T19:09:35;94879.63;;;27.62;37.58
31595;BME280;18200;48.726;8.892;2023-03-13T19:13:35;94915.09;;;27.82;36.94
31595;BME280;18200;48.726;8.892;2023-03-13T19:17:37;94909.56;;;27.41;37.58
31595;BME280;18200;48.726;8.892;2023-03-13T19:21:38;94925.63;;;26.80;38.44
31595;BME280;18200;48.726;8.892;2023-03-13T19:25:39;94962.38;;;28.38;36.49
31595;BME280;18200;48.726;8.892;2023-03-13T19:29:40;95002.84;;;27.95;36.54
31595;BME280;18200;48.726;8.892;2023-03-13T19:33:40;95029.06;;;26.48;39.43
31595;BME280;18200;48.726;8.892;2023-03-13T19:37:41;95027.94;;;25.73;41.15
31595;BME280;18200;48.726;8.892;2023-03-13T19:41:41;95020.28;;;24.50;43.59
31595;BME280;18200;48.726;8.892;2023-03-13T19:45:41;95058.44;;;22.96;46.89
31595;BME280;18200;48.726;8.892;2023-03-13T19:49:42;95144.44;;;23.94;45.33
31595;BME280;18200;48.726;8.892;2023-03-13T19:53:44;95178.63;;;22.74;48.47
31595;BME280;18200;48.726;8.892;2023-03-13T19:57:45;95189.81;;;24.10;45.16
31595;BME280;18200;48.726;8.892;2023-03-13T20:01:46;95228.75;;;22.66;47.07
31595;BME280;18200;48.726;8.892;2023-03-13T20:05:47;95304.34;;;21.92;48.14
31595;BME280;18200;48.726;8.892;2023-03-13T20:09:47;95291.03;;;20.29;46.74
31595;BME280;18200;48.726;8.892;2023-03-13T20:13:47;95280.88;;;19.32;47.71
31595;BME280;18200;48.726;8.892;2023-03-13T20:17:48;95330.56;;;19.14;47.21
31595;BME280;18200;48.726;8.892;2023-03-13T20:21:48;95302.56;;;19.36;46.28
31595;BME280;18200;48.726;8.892;2023-03-13T20:25:49;95312.16;;;20.07;44.28
31595;BME280;18200;48.726;8.892;2023-03-13T20:29:49;95306.59;;;21.01;42.57
31595;BME280;18200;48.726;8.892;2023-03-13T20:33:50;95324.25;;;21.93;40.42
31595;BME280;18200;48.726;8.892;2023-03-13T20:37:50;95335.34;;;21.38;41.48
31595;BME280;18200;48.726;8.892;2023-03-13T20:41:53;95313.19;;;22.58;39.67
31595;BME280;18200;48.726;8.892;2023-03-13T20:45:55;95299.88;;;23.62;37.53
31595;BME280;18200;48.726;8.892;2023-03-13T20:49:55;95299.69;;;23.66;37.41
31595;BME280;18200;48.726;8.892;2023-03-13T20:53:56;95307.56;;;23.44;39.11
31595;BME280;18200;48.726;8.892;2023-03-13T20:57:56;95279.88;;;24.11;37.53
31595;BME280;18200;48.726;8.892;2023-03-13T21:01:57;95197.38;;;24.00;37.68
31595;BME280;18200;48.726;8.892;2023-03-13T21:05:57;95218.00;;;24.30;37.53
31595;BME280;18200;48.726;8.892;2023-03-13T21:09:57;95335.34;;;21.89;42.52
31595;BME280;18200;48.726;8.892;2023-03-13T21:13:58;95333.69;;;23.30;39.43
31595;BME280;18200;48.726;8.892;2023-03-13T21:17:58;95322.44;;;24.21;38.16
31595;BME280;18200;48.726;8.892;2023-03-13T21:21:59;95333.09;;;24.54;37.65
31595;BME280;18200;48.726;8.892;2023-03-13T21:25:59;95331.88;;;24.55;37.00
31595;BME280;18200;48.726;8.892;2023-03-13T21:30:00;95231.97;;;24.52;37.53
31595;BME280;18200;48.726;8.892;2023-03-13T21:34:01;95292.28;;;23.72;38.69
31595;BME280;18200;48.726;8.892;2023-03-13T21:38:01;95299.00;;;25.06;36.88
31595;BME280;18200;48.726;8.892;2023-03-13T21:42:03;95318.44;;;25.03;36.76
31595;BME280;18200;48.726;8.892;2023-03-13T21:46:03;95309.91;;;24.55;37.42
31595;BME280;18200;48.726;8.892;2023-03-13T21:50:06;95243.69;;;24.27;37.45
31595;BME280;18200;48.726;8.892;2023-03-13T21:54:06;95203.41;;;24.19;37.59
31595;BME280;18200;48.726;8.892;2023-03-13T21:58:07;95180.31;;;24.77;37.25
31595;BME280;18200;48.726;8.892;2023-03-13T22:02:11;95199.75;;;24.27;37.75
31595;BME280;18200;48.726;8.892;2023-03-13T22:06:13;95236.59;;;23.17;39.88
31595;BME280;18200;48.726;8.892;2023-03-13T22:10:13;95225.97;;;23.24;39.55
31595;BME280;18200;48.726;8.892;2023-03-13T22:14:14;95210.19;;;23.68;38.78
31595;BME280;18200;48.726;8.892;2023-03-13T22:18:15;95170.38;;;23.93;38.72
31595;BME280;18200;48.726;8.892;2023-03-13T22:22:15;95144.88;;;23.47;39.42
31595;BME280;18200;48.726;8.892;2023-03-13T22:26:16;95125.41;;;23.65;38.94
31595;BME280;18200;48.726;8.892;2023-03-13T22:30:16;95132.78;;;23.39;39.77
31595;BME280;18200;48.726;8.892;2023-03-13T22:34:17;95147.06;;;22.93;40.02
31595;BME280;18200;48.726;8.892;2023-03-13T22:38:18;95136.22;;;24.14;38.69
31595;BME280;18200;48.726;8.892;2023-03-13T22:42:20;95144.88;;;23.47;39.85
31595;BME280;18200;48.726;8.892;2023-03-13T22:46:21;95158.97;;;23.60;38.85
31595;BME280;18200;48.726;8.892;2023-03-13T22:50:21;95176.50;;;22.98;40.10
31595;BME280;18200;48.726;8.892;2023-03-13T22:54:24;95195.72;;;22.31;41.57
31595;BME280;18200;48.726;8.892;2023-03-13T22:58:26;95198.63;;;22.66;40.72
31595;BME280;18200;48.726;8.892;2023-03-13T23:02:27;95214.28;;;22.94;40.61
31595;BME280;18200;48.726;8.892;2023-03-13T23:06:27;95219.31;;;21.81;42.69
31595;BME280;18200;48.726;8.892;2023-03-13T23:10:28;95207.88;;;21.92;43.11
31595;BME280;18200;48.726;8.892;2023-03-13T23:14:28;95177.28;;;22.84;40.70
31595;BME280;18200;48.726;8.892;2023-03-13T23:18:29;95130.06;;;23.24;40.07
31595;BME280;18200;48.726;8.892;2023-03-13T23:22:29;95144.59;;;22.81;40.98
31595;BME280;18200;48.726;8.892;2023-03-13T23:26:31;95190.63;;;22.53;41.53
31595;BME280;18200;48.726;8.892;2023-03-13T23:30:32;95179.56;;;21.47;43.92
31595;BME280;18200;48.726;8.892;2023-03-13T23:34:34;95199.25;;;22.08;43.30
